ADDS METAR Data INFO
IDs: Format: Raw Decoded Include TAF

Data at: 1529 UTC 18 Jun 2018

KEBA 181515Z AUTO 00000KT 10SM BKN026 BKN032 31/23 A3017 RMK AO2 T03090226
KEBA 181455Z AUTO 00000KT 10SM 31/23 A3017 RMK AO2 6//// T03050227 PWINO